New Brighton, New Zealand
Current Conditions -  °F | °C
As of 10:00 AM on Friday 19 Dec 2014 (Local Time) from NZCH Reporting Station
Clear Clear  
Wind Chill: 73°   Ceiling: Unl
Heat Index: 73°   Visibility: 6mi
Dew Point: 55°   Wind: 6mph
Humidity: 53%   Direction: 60°ENE
Pressure: 29.88"   Gusts: NA
Location:  43.51°S, 172.73°E
Report Text: NZCH 182200Z AUTO 06005KT 020V120 9999 NCD 23/13 Q1012 NOSIG
Loading
Personal Weather Stations






























Interactive Weather Map New forecast layout! Learn more

10-Day Weather Forecast

Advertisements
Track Severe Weather on mobile